sensor_id;sensor_type;location;lat;lon;timestamp;pressure;altitude;pressure_sealevel;temperature;humidity
76478;BME280;65309;49.790;18.972;2023-04-24T00:04:52;95836.41;;;13.33;41.43
76478;BME280;65309;49.790;18.972;2023-04-24T00:09:56;95831.44;;;13.26;43.75
76478;BME280;65309;49.790;18.972;2023-04-24T00:14:58;95822.78;;;13.35;42.69
76478;BME280;65309;49.790;18.972;2023-04-24T00:20:00;95825.91;;;12.97;44.37
76478;BME280;65309;49.790;18.972;2023-04-24T00:25:05;95808.78;;;12.63;45.40
76478;BME280;65309;49.790;18.972;2023-04-24T00:30:08;95808.44;;;12.72;44.19
76478;BME280;65309;49.790;18.972;2023-04-24T00:35:10;95797.56;;;13.04;43.88
76478;BME280;65309;49.790;18.972;2023-04-24T00:40:14;95785.63;;;13.14;42.67
76478;BME280;65309;49.790;18.972;2023-04-24T00:45:16;95777.53;;;13.16;42.69
76478;BME280;65309;49.790;18.972;2023-04-24T00:50:18;95769.03;;;13.03;43.21
76478;BME280;65309;49.790;18.972;2023-04-24T00:55:24;95776.16;;;12.99;43.24
76478;BME280;65309;49.790;18.972;2023-04-24T01:00:27;95763.97;;;13.07;42.93
76478;BME280;65309;49.790;18.972;2023-04-24T01:05:29;95761.34;;;13.20;41.93
76478;BME280;65309;49.790;18.972;2023-04-24T01:10:34;95756.03;;;13.22;42.72
76478;BME280;65309;49.790;18.972;2023-04-24T01:15:38;95746.63;;;13.25;42.69
76478;BME280;65309;49.790;18.972;2023-04-24T01:20:41;95737.72;;;13.32;41.66
76478;BME280;65309;49.790;18.972;2023-04-24T01:25:45;95730.44;;;13.29;41.34
76478;BME280;65309;49.790;18.972;2023-04-24T01:30:48;95728.13;;;13.33;41.86
76478;BME280;65309;49.790;18.972;2023-04-24T01:35:50;95736.91;;;13.38;41.99
76478;BME280;65309;49.790;18.972;2023-04-24T01:40:54;95710.50;;;13.31;41.64
76478;BME280;65309;49.790;18.972;2023-04-24T01:45:56;95713.25;;;13.31;40.90
76478;BME280;65309;49.790;18.972;2023-04-24T01:50:58;95706.41;;;13.32;41.65
76478;BME280;65309;49.790;18.972;2023-04-24T01:56:02;95693.69;;;13.42;42.59
76478;BME280;65309;49.790;18.972;2023-04-24T02:01:06;95699.84;;;13.54;40.29
76478;BME280;65309;49.790;18.972;2023-04-24T02:06:08;95698.63;;;13.68;40.59
76478;BME280;65309;49.790;18.972;2023-04-24T02:11:11;95696.94;;;13.65;40.54
76478;BME280;65309;49.790;18.972;2023-04-24T02:16:13;95689.31;;;13.65;40.35
76478;BME280;65309;49.790;18.972;2023-04-24T02:21:15;95682.19;;;13.70;40.86
76478;BME280;65309;49.790;18.972;2023-04-24T02:26:18;95683.94;;;13.73;41.36
76478;BME280;65309;49.790;18.972;2023-04-24T02:31:20;95680.28;;;13.78;40.14
76478;BME280;65309;49.790;18.972;2023-04-24T02:36:22;95672.63;;;13.84;40.01
76478;BME280;65309;49.790;18.972;2023-04-24T02:41:26;95673.84;;;13.89;39.77
76478;BME280;65309;49.790;18.972;2023-04-24T02:46:33;95656.66;;;14.03;39.34
76478;BME280;65309;49.790;18.972;2023-04-24T02:51:34;95664.81;;;14.01;40.55
76478;BME280;65309;49.790;18.972;2023-04-24T02:56:41;95660.97;;;14.04;39.55
76478;BME280;65309;49.790;18.972;2023-04-24T03:01:43;95657.13;;;14.07;40.86
76478;BME280;65309;49.790;18.972;2023-04-24T03:06:45;95660.13;;;14.09;38.29
76478;BME280;65309;49.790;18.972;2023-04-24T03:11:49;95656.91;;;14.05;39.51
76478;BME280;65309;49.790;18.972;2023-04-24T03:16:51;95656.03;;;13.97;41.17
76478;BME280;65309;49.790;18.972;2023-04-24T03:21:53;95652.84;;;14.06;38.89
76478;BME280;65309;49.790;18.972;2023-04-24T03:26:56;95663.09;;;14.11;39.02
76478;BME280;65309;49.790;18.972;2023-04-24T03:31:58;95654.03;;;14.11;39.37
76478;BME280;65309;49.790;18.972;2023-04-24T03:37:00;95649.56;;;14.21;38.46
76478;BME280;65309;49.790;18.972;2023-04-24T03:42:04;95647.81;;;14.37;38.18
76478;BME280;65309;49.790;18.972;2023-04-24T03:47:06;95652.75;;;14.44;39.89
76478;BME280;65309;49.790;18.972;2023-04-24T03:52:08;95651.03;;;14.41;37.24
76478;BME280;65309;49.790;18.972;2023-04-24T03:57:11;95657.88;;;14.40;38.39
76478;BME280;65309;49.790;18.972;2023-04-24T04:02:13;95659.53;;;14.29;38.20
76478;BME280;65309;49.790;18.972;2023-04-24T04:07:16;95659.97;;;14.34;39.55
76478;BME280;65309;49.790;18.972;2023-04-24T04:12:20;95652.09;;;14.38;38.96
76478;BME280;65309;49.790;18.972;2023-04-24T04:17:22;95654.34;;;14.39;38.72
76478;BME280;65309;49.790;18.972;2023-04-24T04:22:23;95654.03;;;14.43;38.80
76478;BME280;65309;49.790;18.972;2023-04-24T04:27:27;95646.31;;;14.49;39.09
76478;BME280;65309;49.790;18.972;2023-04-24T04:32:30;95650.53;;;14.55;38.75
76478;BME280;65309;49.790;18.972;2023-04-24T04:37:33;95644.13;;;14.73;39.58
76478;BME280;65309;49.790;18.972;2023-04-24T04:42:36;95650.25;;;14.98;38.33
76478;BME280;65309;49.790;18.972;2023-04-24T04:47:42;95656.63;;;15.19;38.28
76478;BME280;65309;49.790;18.972;2023-04-24T04:52:44;95652.56;;;15.20;37.91
76478;BME280;65309;49.790;18.972;2023-04-24T04:57:47;95656.63;;;15.19;36.20
76478;BME280;65309;49.790;18.972;2023-04-24T05:02:49;95658.03;;;15.13;36.40
76478;BME280;65309;49.790;18.972;2023-04-24T05:07:51;95648.06;;;15.17;38.35
76478;BME280;65309;49.790;18.972;2023-04-24T05:12:55;95660.28;;;14.88;39.17
76478;BME280;65309;49.790;18.972;2023-04-24T05:17:57;95651.19;;;14.74;39.09
76478;BME280;65309;49.790;18.972;2023-04-24T05:22:59;95652.88;;;14.51;40.82
76478;BME280;65309;49.790;18.972;2023-04-24T05:28:02;95645.88;;;14.32;41.03
76478;BME280;65309;49.790;18.972;2023-04-24T05:33:04;95647.34;;;14.33;41.75
76478;BME280;65309;49.790;18.972;2023-04-24T05:38:07;95650.59;;;14.37;41.74
76478;BME280;65309;49.790;18.972;2023-04-24T05:43:10;95657.13;;;14.39;42.69
76478;BME280;65309;49.790;18.972;2023-04-24T05:48:12;95648.50;;;14.69;41.51
76478;BME280;65309;49.790;18.972;2023-04-24T05:53:14;95651.09;;;14.93;41.68
76478;BME280;65309;49.790;18.972;2023-04-24T05:58:18;95647.31;;;15.17;42.13
76478;BME280;65309;49.790;18.972;2023-04-24T06:03:20;95650.69;;;15.49;41.87
76478;BME280;65309;49.790;18.972;2023-04-24T06:08:22;95645.03;;;15.55;41.97
76478;BME280;65309;49.790;18.972;2023-04-24T06:13:26;95650.13;;;15.77;39.04
76478;BME280;65309;49.790;18.972;2023-04-24T06:18:28;95644.19;;;16.15;38.20
76478;BME280;65309;49.790;18.972;2023-04-24T06:23:30;95636.13;;;16.52;36.88
76478;BME280;65309;49.790;18.972;2023-04-24T06:28:35;95626.63;;;17.05;35.42
76478;BME280;65309;49.790;18.972;2023-04-24T06:33:37;95625.34;;;17.49;35.94
76478;BME280;65309;49.790;18.972;2023-04-24T06:38:39;95625.69;;;18.04;36.55
76478;BME280;65309;49.790;18.972;2023-04-24T06:43:43;95635.81;;;18.22;34.30
76478;BME280;65309;49.790;18.972;2023-04-24T06:48:45;95629.44;;;18.07;34.12
76478;BME280;65309;49.790;18.972;2023-04-24T06:53:47;95622.72;;;18.10;35.73
76478;BME280;65309;49.790;18.972;2023-04-24T06:58:51;95628.53;;;18.27;36.28
76478;BME280;65309;49.790;18.972;2023-04-24T07:03:53;95623.47;;;17.44;34.38
76478;BME280;65309;49.790;18.972;2023-04-24T07:08:56;95615.94;;;17.24;37.70
76478;BME280;65309;49.790;18.972;2023-04-24T07:13:59;95615.00;;;17.65;35.72
76478;BME280;65309;49.790;18.972;2023-04-24T07:19:01;95631.97;;;17.74;36.23
76478;BME280;65309;49.790;18.972;2023-04-24T07:24:03;95624.13;;;17.29;37.00
76478;BME280;65309;49.790;18.972;2023-04-24T07:29:07;95620.84;;;17.46;38.24
76478;BME280;65309;49.790;18.972;2023-04-24T07:34:10;95610.63;;;17.48;35.60
76478;BME280;65309;49.790;18.972;2023-04-24T07:39:12;95620.81;;;17.82;36.05
76478;BME280;65309;49.790;18.972;2023-04-24T07:44:15;95614.13;;;18.00;36.54
76478;BME280;65309;49.790;18.972;2023-04-24T07:49:18;95608.72;;;17.95;36.44
76478;BME280;65309;49.790;18.972;2023-04-24T07:54:21;95604.44;;;17.93;38.01
76478;BME280;65309;49.790;18.972;2023-04-24T07:59:24;95610.38;;;17.90;36.20
76478;BME280;65309;49.790;18.972;2023-04-24T08:04:26;95601.84;;;18.41;38.38
76478;BME280;65309;49.790;18.972;2023-04-24T08:09:28;95600.91;;;18.84;35.24
76478;BME280;65309;49.790;18.972;2023-04-24T08:14:32;95595.97;;;20.27;35.86
76478;BME280;65309;49.790;18.972;2023-04-24T08:19:35;95596.91;;;19.97;36.22
76478;BME280;65309;49.790;18.972;2023-04-24T08:24:37;95595.13;;;19.85;33.73
76478;BME280;65309;49.790;18.972;2023-04-24T08:29:40;95591.25;;;19.72;36.36
76478;BME280;65309;49.790;18.972;2023-04-24T08:34:43;95593.88;;;20.03;35.93
76478;BME280;65309;49.790;18.972;2023-04-24T08:39:45;95586.06;;;19.14;36.14
76478;BME280;65309;49.790;18.972;2023-04-24T08:44:49;95591.84;;;20.03;34.38
76478;BME280;65309;49.790;18.972;2023-04-24T08:49:51;95588.91;;;20.18;32.96
76478;BME280;65309;49.790;18.972;2023-04-24T08:54:54;95586.19;;;19.79;34.79
76478;BME280;65309;49.790;18.972;2023-04-24T08:59:58;95583.78;;;20.00;33.64
76478;BME280;65309;49.790;18.972;2023-04-24T09:05:01;95593.06;;;19.38;33.98
76478;BME280;65309;49.790;18.972;2023-04-24T09:10:06;95603.88;;;18.94;35.62
76478;BME280;65309;49.790;18.972;2023-04-24T09:15:11;95606.25;;;19.05;37.74
76478;BME280;65309;49.790;18.972;2023-04-24T09:20:13;95608.75;;;17.51;39.02
76478;BME280;65309;49.790;18.972;2023-04-24T09:25:16;95614.00;;;18.28;39.00
76478;BME280;65309;49.790;18.972;2023-04-24T09:30:21;95613.41;;;18.30;38.00
76478;BME280;65309;49.790;18.972;2023-04-24T09:35:24;95617.88;;;18.18;38.86
76478;BME280;65309;49.790;18.972;2023-04-24T09:40:26;95609.28;;;17.93;39.19
76478;BME280;65309;49.790;18.972;2023-04-24T09:45:35;95603.31;;;18.04;40.13
76478;BME280;65309;49.790;18.972;2023-04-24T09:50:37;95609.69;;;17.02;40.00
76478;BME280;65309;49.790;18.972;2023-04-24T09:55:39;95602.53;;;17.88;40.89
76478;BME280;65309;49.790;18.972;2023-04-24T10:00:45;95607.97;;;17.86;39.32
76478;BME280;65309;49.790;18.972;2023-04-24T10:05:47;95604.06;;;18.05;38.72
76478;BME280;65309;49.790;18.972;2023-04-24T10:10:49;95604.25;;;18.07;39.79
76478;BME280;65309;49.790;18.972;2023-04-24T10:15:53;95606.69;;;18.03;41.61
76478;BME280;65309;49.790;18.972;2023-04-24T10:20:56;95607.41;;;17.96;40.80
76478;BME280;65309;49.790;18.972;2023-04-24T10:26:00;95615.25;;;17.46;42.17
76478;BME280;65309;49.790;18.972;2023-04-24T10:31:03;95628.97;;;16.93;43.47
76478;BME280;65309;49.790;18.972;2023-04-24T10:36:06;95629.19;;;16.46;45.25
76478;BME280;65309;49.790;18.972;2023-04-24T10:41:10;95618.25;;;16.06;45.44
76478;BME280;65309;49.790;18.972;2023-04-24T10:46:20;95629.50;;;15.80;47.29
76478;BME280;65309;49.790;18.972;2023-04-24T10:51:23;95626.63;;;15.52;48.26
76478;BME280;65309;49.790;18.972;2023-04-24T10:56:26;95626.69;;;15.46;49.54
76478;BME280;65309;49.790;18.972;2023-04-24T11:01:30;95625.28;;;15.06;50.14
76478;BME280;65309;49.790;18.972;2023-04-24T11:06:34;95622.16;;;15.09;49.82
76478;BME280;65309;49.790;18.972;2023-04-24T11:11:42;95624.41;;;15.11;49.29
76478;BME280;65309;49.790;18.972;2023-04-24T11:16:51;95633.41;;;15.04;50.12
76478;BME280;65309;49.790;18.972;2023-04-24T11:21:57;95630.84;;;15.06;49.31
76478;BME280;65309;49.790;18.972;2023-04-24T11:27:07;95634.16;;;15.04;50.29
76478;BME280;65309;49.790;18.972;2023-04-24T11:32:28;95638.03;;;14.30;55.79
76478;BME280;65309;49.790;18.972;2023-04-24T11:37:34;95649.47;;;13.95;60.98
76478;BME280;65309;49.790;18.972;2023-04-24T11:42:39;95644.66;;;13.95;62.84
76478;BME280;65309;49.790;18.972;2023-04-24T11:47:43;95652.81;;;13.93;63.98
76478;BME280;65309;49.790;18.972;2023-04-24T11:52:47;95661.34;;;13.95;63.78
76478;BME280;65309;49.790;18.972;2023-04-24T11:57:52;95650.22;;;13.95;63.37
76478;BME280;65309;49.790;18.972;2023-04-24T12:03:04;95646.94;;;13.78;63.44
76478;BME280;65309;49.790;18.972;2023-04-24T12:08:08;95639.72;;;13.88;62.48
76478;BME280;65309;49.790;18.972;2023-04-24T12:13:09;95634.78;;;13.81;61.14
76478;BME280;65309;49.790;18.972;2023-04-24T12:18:14;95637.41;;;13.73;63.59
76478;BME280;65309;49.790;18.972;2023-04-24T12:23:33;95639.84;;;13.64;64.87
76478;BME280;65309;49.790;18.972;2023-04-24T12:28:36;95639.16;;;13.76;64.99
76478;BME280;65309;49.790;18.972;2023-04-24T12:33:40;95636.50;;;13.84;60.88
76478;BME280;65309;49.790;18.972;2023-04-24T12:38:43;95656.41;;;13.88;60.29
76478;BME280;65309;49.790;18.972;2023-04-24T12:43:52;95659.81;;;13.81;61.25
76478;BME280;65309;49.790;18.972;2023-04-24T12:48:55;95666.81;;;13.69;61.16
76478;BME280;65309;49.790;18.972;2023-04-24T12:53:57;95654.34;;;13.38;65.59
76478;BME280;65309;49.790;18.972;2023-04-24T12:58:59;95651.94;;;13.10;69.60
76478;BME280;65309;49.790;18.972;2023-04-24T13:04:03;95649.94;;;13.05;69.54
76478;BME280;65309;49.790;18.972;2023-04-24T13:09:05;95633.88;;;12.74;68.86
76478;BME280;65309;49.790;18.972;2023-04-24T13:14:07;95626.41;;;12.87;68.86
76478;BME280;65309;49.790;18.972;2023-04-24T13:19:10;95623.38;;;12.42;72.33
76478;BME280;65309;49.790;18.972;2023-04-24T13:24:12;95618.81;;;12.45;73.35
76478;BME280;65309;49.790;18.972;2023-04-24T13:29:15;95618.28;;;12.22;77.52
76478;BME280;65309;49.790;18.972;2023-04-24T13:34:18;95613.84;;;12.14;77.82
76478;BME280;65309;49.790;18.972;2023-04-24T13:39:20;95610.88;;;12.06;78.69
76478;BME280;65309;49.790;18.972;2023-04-24T13:44:22;95602.56;;;12.06;79.10
76478;BME280;65309;49.790;18.972;2023-04-24T13:49:26;95611.38;;;11.75;79.75
76478;BME280;65309;49.790;18.972;2023-04-24T13:54:28;95602.56;;;11.35;80.53
76478;BME280;65309;49.790;18.972;2023-04-24T13:59:31;95607.28;;;12.11;76.30
76478;BME280;65309;49.790;18.972;2023-04-24T14:04:34;95607.75;;;11.50;83.28
76478;BME280;65309;49.790;18.972;2023-04-24T14:09:36;95610.53;;;11.50;79.86
76478;BME280;65309;49.790;18.972;2023-04-24T14:14:38;95601.34;;;11.72;81.77
76478;BME280;65309;49.790;18.972;2023-04-24T14:19:42;95589.78;;;11.27;87.61
76478;BME280;65309;49.790;18.972;2023-04-24T14:24:44;95586.56;;;11.58;87.62
76478;BME280;65309;49.790;18.972;2023-04-24T14:29:46;95577.72;;;11.24;89.94
76478;BME280;65309;49.790;18.972;2023-04-24T14:34:49;95588.22;;;11.37;90.71
76478;BME280;65309;49.790;18.972;2023-04-24T14:39:51;95582.00;;;11.25;91.99
76478;BME280;65309;49.790;18.972;2023-04-24T14:45:12;95569.84;;;11.39;90.84
76478;BME280;65309;49.790;18.972;2023-04-24T14:50:15;95562.59;;;11.61;87.39
76478;BME280;65309;49.790;18.972;2023-04-24T14:55:18;95558.81;;;11.64;85.14
76478;BME280;65309;49.790;18.972;2023-04-24T15:00:22;95563.16;;;11.53;83.75
76478;BME280;65309;49.790;18.972;2023-04-24T15:05:27;95563.16;;;11.53;83.88
76478;BME280;65309;49.790;18.972;2023-04-24T15:10:29;95557.25;;;11.38;84.48
76478;BME280;65309;49.790;18.972;2023-04-24T15:15:31;95550.47;;;11.39;83.54
76478;BME280;65309;49.790;18.972;2023-04-24T15:20:35;95554.47;;;11.38;82.23
76478;BME280;65309;49.790;18.972;2023-04-24T15:25:39;95546.19;;;11.38;82.29
76478;BME280;65309;49.790;18.972;2023-04-24T15:30:41;95549.66;;;11.44;80.62
76478;BME280;65309;49.790;18.972;2023-04-24T15:35:45;95550.13;;;11.48;80.46
76478;BME280;65309;49.790;18.972;2023-04-24T15:40:47;95539.78;;;11.49;79.89
76478;BME280;65309;49.790;18.972;2023-04-24T15:45:50;95541.56;;;11.52;79.08
76478;BME280;65309;49.790;18.972;2023-04-24T15:50:53;95533.72;;;11.56;80.87
76478;BME280;65309;49.790;18.972;2023-04-24T15:55:55;95529.91;;;11.59;78.95
76478;BME280;65309;49.790;18.972;2023-04-24T16:00:59;95532.72;;;11.53;78.53
76478;BME280;65309;49.790;18.972;2023-04-24T16:06:03;95536.09;;;11.71;77.44
76478;BME280;65309;49.790;18.972;2023-04-24T16:11:05;95527.44;;;11.85;77.14
76478;BME280;65309;49.790;18.972;2023-04-24T16:16:07;95530.44;;;11.87;77.00
76478;BME280;65309;49.790;18.972;2023-04-24T16:21:10;95526.00;;;12.03;76.20
76478;BME280;65309;49.790;18.972;2023-04-24T16:26:12;95524.50;;;12.02;76.21
76478;BME280;65309;49.790;18.972;2023-04-24T16:31:14;95524.50;;;12.02;76.29
76478;BME280;65309;49.790;18.972;2023-04-24T16:36:19;95522.38;;;11.89;75.99
76478;BME280;65309;49.790;18.972;2023-04-24T16:41:21;95521.31;;;11.92;75.40
76478;BME280;65309;49.790;18.972;2023-04-24T16:46:23;95521.03;;;11.96;75.99
76478;BME280;65309;49.790;18.972;2023-04-24T16:51:27;95513.06;;;11.87;75.86
76478;BME280;65309;49.790;18.972;2023-04-24T16:56:29;95528.84;;;11.97;75.30
76478;BME280;65309;49.790;18.972;2023-04-24T17:01:31;95515.78;;;11.92;75.35
76478;BME280;65309;49.790;18.972;2023-04-24T17:06:35;95516.06;;;11.89;75.72
76478;BME280;65309;49.790;18.972;2023-04-24T17:11:37;95507.53;;;11.87;75.17
76478;BME280;65309;49.790;18.972;2023-04-24T17:16:39;95513.06;;;11.87;74.73
76478;BME280;65309;49.790;18.972;2023-04-24T17:21:43;95521.63;;;11.89;75.04
76478;BME280;65309;49.790;18.972;2023-04-24T17:26:46;95528.63;;;11.90;75.38
76478;BME280;65309;49.790;18.972;2023-04-24T17:31:48;95523.47;;;11.81;75.42
76478;BME280;65309;49.790;18.972;2023-04-24T17:36:51;95525.66;;;11.88;75.65
76478;BME280;65309;49.790;18.972;2023-04-24T17:41:53;95528.75;;;11.79;76.63
76478;BME280;65309;49.790;18.972;2023-04-24T17:46:55;95531.00;;;11.80;77.18
76478;BME280;65309;49.790;18.972;2023-04-24T17:51:58;95530.22;;;11.85;76.24
76478;BME280;65309;49.790;18.972;2023-04-24T17:57:00;95541.63;;;11.71;77.56
76478;BME280;65309;49.790;18.972;2023-04-24T18:02:03;95548.66;;;11.77;76.55
76478;BME280;65309;49.790;18.972;2023-04-24T18:07:06;95555.41;;;11.82;76.68
76478;BME280;65309;49.790;18.972;2023-04-24T18:12:08;95567.25;;;11.82;76.55
76478;BME280;65309;49.790;18.972;2023-04-24T18:17:11;95570.56;;;11.81;76.81
76478;BME280;65309;49.790;18.972;2023-04-24T18:22:14;95569.03;;;11.80;76.84
76478;BME280;65309;49.790;18.972;2023-04-24T18:27:16;95566.31;;;11.74;77.42
76478;BME280;65309;49.790;18.972;2023-04-24T18:32:19;95577.84;;;11.78;77.05
76478;BME280;65309;49.790;18.972;2023-04-24T18:37:23;95585.94;;;11.76;75.84
76478;BME280;65309;49.790;18.972;2023-04-24T18:42:25;95582.94;;;11.74;76.71
76478;BME280;65309;49.790;18.972;2023-04-24T18:47:27;95602.50;;;11.46;78.45
76478;BME280;65309;49.790;18.972;2023-04-24T18:52:31;95617.25;;;11.19;80.90
76478;BME280;65309;49.790;18.972;2023-04-24T18:57:33;95624.44;;;10.87;86.31
76478;BME280;65309;49.790;18.972;2023-04-24T19:02:35;95621.06;;;10.47;90.16
76478;BME280;65309;49.790;18.972;2023-04-24T19:07:39;95619.56;;;10.46;92.75
76478;BME280;65309;49.790;18.972;2023-04-24T19:12:43;95628.63;;;10.30;95.71
76478;BME280;65309;49.790;18.972;2023-04-24T19:17:45;95623.13;;;10.25;94.88
76478;BME280;65309;49.790;18.972;2023-04-24T19:22:50;95628.88;;;9.99;96.72
76478;BME280;65309;49.790;18.972;2023-04-24T19:27:52;95628.41;;;10.06;96.92
76478;BME280;65309;49.790;18.972;2023-04-24T19:32:55;95632.91;;;9.92;97.54
76478;BME280;65309;49.790;18.972;2023-04-24T19:37:59;95630.66;;;9.91;98.29
76478;BME280;65309;49.790;18.972;2023-04-24T19:43:01;95628.16;;;9.93;98.64
76478;BME280;65309;49.790;18.972;2023-04-24T19:48:04;95631.16;;;9.84;100.00
76478;BME280;65309;49.790;18.972;2023-04-24T19:53:08;95634.69;;;9.84;100.00
76478;BME280;65309;49.790;18.972;2023-04-24T19:58:10;95638.94;;;9.85;100.00
76478;BME280;65309;49.790;18.972;2023-04-24T20:03:12;95643.72;;;9.85;100.00
76478;BME280;65309;49.790;18.972;2023-04-24T20:08:28;95635.94;;;9.72;100.00
76478;BME280;65309;49.790;18.972;2023-04-24T20:13:30;95628.63;;;9.69;100.00
76478;BME280;65309;49.790;18.972;2023-04-24T20:18:33;95637.44;;;9.67;100.00
76478;BME280;65309;49.790;18.972;2023-04-24T20:23:36;95638.94;;;9.80;100.00
76478;BME280;65309;49.790;18.972;2023-04-24T20:28:38;95645.72;;;9.67;100.00
76478;BME280;65309;49.790;18.972;2023-04-24T20:33:40;95648.44;;;9.51;100.00
76478;BME280;65309;49.790;18.972;2023-04-24T20:38:44;95654.97;;;9.64;100.00
76478;BME280;65309;49.790;18.972;2023-04-24T20:43:48;95655.97;;;9.61;97.68
76478;BME280;65309;49.790;18.972;2023-04-24T20:48:50;95655.00;;;9.70;96.59
76478;BME280;65309;49.790;18.972;2023-04-24T20:53:53;95652.25;;;9.76;96.01
76478;BME280;65309;49.790;18.972;2023-04-24T20:58:55;95652.50;;;9.83;96.37
76478;BME280;65309;49.790;18.972;2023-04-24T21:03:58;95654.75;;;9.85;96.32
76478;BME280;65309;49.790;18.972;2023-04-24T21:09:01;95656.25;;;9.75;96.92
76478;BME280;65309;49.790;18.972;2023-04-24T21:14:05;95655.28;;;9.89;96.60
76478;BME280;65309;49.790;18.972;2023-04-24T21:19:07;95658.53;;;9.87;96.48
76478;BME280;65309;49.790;18.972;2023-04-24T21:24:10;95663.53;;;9.72;97.21
76478;BME280;65309;49.790;18.972;2023-04-24T21:29:12;95670.56;;;9.79;96.59
76478;BME280;65309;49.790;18.972;2023-04-24T21:34:14;95663.28;;;9.59;97.70
76478;BME280;65309;49.790;18.972;2023-04-24T21:39:18;95668.06;;;9.64;98.14
76478;BME280;65309;49.790;18.972;2023-04-24T21:44:20;95665.53;;;9.55;98.54
76478;BME280;65309;49.790;18.972;2023-04-24T21:49:22;95677.31;;;9.55;97.85
76478;BME280;65309;49.790;18.972;2023-04-24T21:54:25;95680.34;;;9.63;97.85
76478;BME280;65309;49.790;18.972;2023-04-24T21:59:27;95680.09;;;9.55;97.68
76478;BME280;65309;49.790;18.972;2023-04-24T22:04:30;95673.78;;;9.60;98.47
76478;BME280;65309;49.790;18.972;2023-04-24T22:09:33;95683.31;;;9.48;97.65
76478;BME280;65309;49.790;18.972;2023-04-24T22:14:35;95679.31;;;9.55;96.10
76478;BME280;65309;49.790;18.972;2023-04-24T22:19:37;95681.31;;;9.54;96.83
76478;BME280;65309;49.790;18.972;2023-04-24T22:24:42;95676.81;;;9.51;98.28
76478;BME280;65309;49.790;18.972;2023-04-24T22:29:44;95679.53;;;9.35;98.98
76478;BME280;65309;49.790;18.972;2023-04-24T22:34:46;95684.31;;;9.45;98.07
76478;BME280;65309;49.790;18.972;2023-04-24T22:39:49;95684.81;;;9.38;98.09
76478;BME280;65309;49.790;18.972;2023-04-24T22:44:51;95686.34;;;9.56;96.14
76478;BME280;65309;49.790;18.972;2023-04-24T22:49:54;95693.31;;;9.40;96.88
76478;BME280;65309;49.790;18.972;2023-04-24T22:54:58;95689.53;;;9.32;98.01
76478;BME280;65309;49.790;18.972;2023-04-24T23:00:02;95678.78;;;9.34;97.47
76478;BME280;65309;49.790;18.972;2023-04-24T23:05:05;95685.03;;;9.40;97.89
76478;BME280;65309;49.790;18.972;2023-04-24T23:10:09;95682.28;;;9.40;96.44
76478;BME280;65309;49.790;18.972;2023-04-24T23:15:11;95677.50;;;9.35;97.74
76478;BME280;65309;49.790;18.972;2023-04-24T23:20:13;95668.19;;;9.16;98.81
76478;BME280;65309;49.790;18.972;2023-04-24T23:25:17;95681.22;;;9.10;99.66
76478;BME280;65309;49.790;18.972;2023-04-24T23:30:19;95668.19;;;9.16;99.08
76478;BME280;65309;49.790;18.972;2023-04-24T23:35:21;95664.19;;;9.22;99.36
76478;BME280;65309;49.790;18.972;2023-04-24T23:40:25;95670.91;;;9.10;100.00
76478;BME280;65309;49.790;18.972;2023-04-24T23:45:27;95679.19;;;9.05;100.00
76478;BME280;65309;49.790;18.972;2023-04-24T23:50:29;95666.09;;;8.89;100.00
76478;BME280;65309;49.790;18.972;2023-04-24T23:55:32;95665.50;;;8.73;100.00
